Nacogdoches, TX

3:20 PM CST on February 01, 2015 (GMT -0600)
Mangham Regional | Change Station
CLOSE
Current Station
Airport
Location: Nacogdoches,
Elevation: 354 ft
Nearby Weather Stations
Active Advisory: Flood Warning

Elev 354 ft 31.58 °N, 94.71 °W | Updated 5 minutes ago

Mostly Cloudy
Mostly Cloudy
63 °F
Feels Like 63 °F
N
20
Wind Variable Wind from North
Gusts 29 mph

Today
High -- | Low -- °F
--% Chance of Precip.
Yesterday
High -- | Low -- °F
Precip. -- in
7:11 AM 5:53 PM
Waxing Gibbous, 96% visible
Pressure 29.91 in
Visibility 10.0 miles
Clouds Mostly Cloudy 2100 ft
Mostly Cloudy 2700 ft
Overcast 3300 ft
Dew Point 54 °F
Humidity 72%
Rainfall 0.02 in
Snow Depth Not available.
UV 1 out of 12
Pollen 7.60 out of 12
Air Quality Not available.
Flu Activity Not available.
METAR KOCH 012115Z AUTO 35017G25KT 10SM BKN021 BKN027 OVC033 17/12 A2991 RMK AO1

More Conditions Fewer Conditions

Pressure 29.91 in
Visibility 10.0 miles
Clouds Mostly Cloudy 2100 ft
Mostly Cloudy 2700 ft
Overcast 3300 ft
Dew Point 54 °F
Humidity 72%
Rainfall 0.02 in
Snow Depth Not available.
UV 1 out of 12
Pollen 7.60 out of 12
Air Quality Not available.
Flu Activity Not available.
METAR KOCH 012115Z AUTO 35017G25KT 10SM BKN021 BKN027 OVC033 17/12 A2991 RMK AO1

More Conditions Fewer Conditions

Nowcast | as of 1:57 PM CST on February 1, 2015

A band of showers and isolated thunderstorms...will continue to move across northern Louisiana...and the East Texas lakes and Toledo Bend area. Rainfall amounts of one quarter to over one half inch of rain may occur in a short period of time...as this line moves eastward at around 30 miles an hour. The rain will end as a strong cold front...bringing falling temperatures and gusty northwest windss... into the region later this afternoon.

×

10-Day Weather Forecast

Almanac

Astronomy

Feb. 01, 2015 Rise Set
Actual Time
Civil Twilight
Nautical Twilight
Astronomical Twilight
Moon
Length of Visible Light
Length of Day
Tomorrow will be .
, % of the Moon is Illuminated

Today's Extremes

State Highs State Lows

Community

WunderPhotos

Upload Photos

1,792,548 photos uploaded!

WunderBlogs® & News

Nearby

Air Quality

  Air Quality AQ Index Pollutant
Not available.

Snow Depth

Station Depth Elevation

Earthquake Activity

City Distance Mag. Time & Date
Minimum magnitude displayed is 2.5.

Coastal Water Temperatures

Place Temperature

Nearby Weather Stations